createdAt,value
2022-11-12T00:00:35.900Z,12.85
2022-11-12T00:03:23.348Z,9.60
2022-11-12T00:06:11.785Z,9.63
2022-11-12T00:08:59.409Z,10.35
2022-11-12T00:11:46.098Z,11.18
2022-11-12T00:14:33.263Z,11.35
2022-11-12T00:17:20.288Z,8.95
2022-11-12T00:20:09.887Z,10.35
2022-11-12T00:22:58.102Z,11.10
2022-11-12T00:25:45.050Z,11.75
2022-11-12T00:28:37.285Z,11.35
2022-11-12T00:31:25.157Z,9.48
2022-11-12T00:34:12.319Z,12.90
2022-11-12T00:36:59.465Z,9.65
2022-11-12T00:39:47.626Z,8.90
2022-11-12T00:42:34.850Z,8.82
2022-11-12T00:45:21.763Z,9.13
2022-11-12T00:48:08.606Z,8.88
2022-11-12T00:51:02.513Z,9.40
2022-11-12T00:53:49.886Z,9.82
2022-11-12T00:56:38.042Z,7.57
2022-11-12T00:59:24.914Z,9.23
2022-11-12T01:02:11.766Z,9.13
2022-11-12T01:04:58.793Z,8.98
2022-11-12T01:07:45.822Z,8.23
2022-11-12T01:10:32.781Z,8.23
2022-11-12T01:13:20.854Z,10.73
2022-11-12T01:16:08.294Z,7.90
2022-11-12T01:18:56.955Z,8.25
2022-11-12T01:21:45.646Z,8.15
2022-11-12T01:24:32.666Z,8.73
2022-11-12T01:27:19.812Z,9.15
2022-11-12T01:30:10.302Z,7.85
2022-11-12T01:32:58.064Z,8.57
2022-11-12T01:35:45.066Z,7.03
2022-11-12T01:38:35.781Z,8.23
2022-11-12T01:41:25.541Z,9.35
2022-11-12T01:44:17.262Z,7.70
2022-11-12T01:47:11.702Z,6.25
2022-11-12T01:50:01.349Z,7.20
2022-11-12T01:52:51.396Z,8.13
2022-11-12T01:55:39.795Z,6.53
2022-11-12T01:58:31.551Z,6.85
2022-11-12T02:01:18.581Z,6.82
2022-11-12T02:04:07.872Z,7.25
2022-11-12T02:06:57.425Z,6.88
2022-11-12T02:09:45.239Z,6.45
2022-11-12T02:12:50.247Z,6.03
2022-11-12T02:15:38.280Z,6.03
2022-11-12T02:18:25.591Z,6.50
2022-11-12T02:21:14.198Z,5.88
2022-11-12T02:24:06.316Z,7.07
2022-11-12T02:26:56.251Z,6.65
2022-11-12T02:29:46.415Z,5.70
2022-11-12T02:32:33.583Z,7.13
2022-11-12T02:35:20.726Z,5.75
2022-11-12T02:38:09.364Z,5.72
2022-11-12T02:40:57.471Z,6.40
2022-11-12T02:43:44.624Z,6.45
2022-11-12T02:46:31.640Z,6.90
2022-11-12T02:49:18.700Z,6.22
2022-11-12T02:52:06.123Z,6.55
2022-11-12T02:54:53.121Z,6.70
2022-11-12T02:57:42.433Z,5.85
2022-11-12T03:00:29.652Z,6.43
2022-11-12T03:03:16.591Z,5.90
2022-11-12T03:06:03.464Z,6.93
2022-11-12T03:08:50.468Z,5.60
2022-11-12T03:11:37.495Z,6.38
2022-11-12T03:14:26.702Z,5.60
2022-11-12T03:17:13.604Z,6.60
2022-11-12T03:20:00.835Z,5.88
2022-11-12T03:22:58.102Z,5.78
2022-11-12T03:25:44.943Z,5.43
2022-11-12T03:28:32.439Z,4.90
2022-11-12T03:31:20.896Z,5.32
2022-11-12T03:34:08.080Z,5.32
2022-11-12T03:36:54.936Z,5.88
2022-11-12T03:39:42.264Z,7.63
2022-11-12T03:42:29.179Z,4.93
2022-11-12T03:45:16.840Z,5.57
2022-11-12T03:48:05.472Z,5.05
2022-11-12T03:50:52.614Z,4.35
2022-11-12T03:53:39.616Z,5.15
2022-11-12T03:56:26.631Z,4.95
2022-11-12T03:59:13.967Z,4.78
2022-11-12T04:02:01.264Z,5.60
2022-11-12T04:05:06.820Z,5.43
2022-11-12T04:08:17.590Z,4.93
2022-11-12T04:11:12.538Z,5.47
2022-11-12T04:14:00.550Z,4.93
2022-11-12T04:17:04.535Z,5.65
2022-11-12T04:20:10.477Z,5.00
2022-11-12T04:22:57.650Z,4.50
2022-11-12T04:26:02.561Z,4.60
2022-11-12T04:29:03.664Z,5.30
2022-11-12T04:31:50.563Z,5.43
2022-11-12T04:34:37.707Z,5.47
2022-11-12T04:37:29.953Z,4.28
2022-11-12T04:40:46.350Z,4.88
2022-11-12T04:43:50.860Z,4.40
2022-11-12T04:46:37.855Z,5.55
2022-11-12T04:49:25.110Z,5.20
2022-11-12T04:52:12.100Z,4.72
2022-11-12T04:55:00.953Z,4.22
2022-11-12T04:57:47.881Z,5.28
2022-11-12T05:00:34.928Z,4.40
2022-11-12T05:03:22.010Z,4.63
2022-11-12T05:06:30.083Z,4.47
2022-11-12T05:09:17.204Z,4.97
2022-11-12T05:12:05.745Z,3.97
2022-11-12T05:14:52.782Z,4.13
2022-11-12T05:17:44.690Z,4.60
2022-11-12T05:20:31.420Z,4.50
2022-11-12T05:23:18.507Z,4.50
2022-11-12T05:26:05.626Z,4.30
2022-11-12T05:28:53.951Z,4.47
2022-11-12T05:31:41.069Z,4.85
2022-11-12T05:34:28.066Z,3.83
2022-11-12T05:37:17.278Z,4.00
2022-11-12T05:40:04.909Z,4.22
2022-11-12T05:42:51.719Z,4.43
2022-11-12T05:45:43.233Z,4.13
2022-11-12T05:48:30.816Z,4.88
2022-11-12T05:51:18.673Z,3.97
2022-11-12T05:54:06.618Z,3.83
2022-11-12T05:56:54.229Z,3.55
2022-11-12T05:59:41.161Z,4.22
2022-11-12T06:02:29.605Z,3.67
2022-11-12T06:05:17.272Z,3.90
2022-11-12T06:08:06.342Z,4.00
2022-11-12T06:10:55.038Z,3.95
2022-11-12T06:13:42.607Z,4.90
2022-11-12T06:16:30.482Z,4.10
2022-11-12T06:19:18.845Z,4.03
2022-11-12T06:22:06.420Z,4.05
2022-11-12T06:24:53.674Z,3.70
2022-11-12T06:27:41.470Z,3.67
2022-11-12T06:30:28.618Z,3.78
2022-11-12T06:33:15.690Z,4.38
2022-11-12T06:36:06.680Z,4.35
2022-11-12T06:38:53.651Z,5.53
2022-11-12T06:41:41.608Z,4.88
2022-11-12T06:44:29.393Z,5.03
2022-11-12T06:47:16.458Z,4.78
2022-11-12T06:50:03.847Z,4.22
2022-11-12T06:52:52.125Z,4.10
2022-11-12T06:55:39.182Z,4.40
2022-11-12T06:58:26.648Z,5.05
2022-11-12T07:01:15.794Z,3.60
2022-11-12T07:04:04.567Z,6.97
2022-11-12T07:06:51.395Z,3.28
2022-11-12T07:09:39.819Z,5.03
2022-11-12T07:12:26.735Z,4.68
2022-11-12T07:15:13.658Z,3.05
2022-11-12T07:18:00.340Z,3.40
2022-11-12T07:20:47.450Z,3.55
2022-11-12T07:23:36.898Z,3.45
2022-11-12T07:26:28.440Z,3.13
2022-11-12T07:29:30.177Z,3.85
2022-11-12T07:32:21.968Z,4.82
2022-11-12T07:35:09.675Z,4.00
2022-11-12T07:37:59.687Z,4.20
2022-11-12T07:40:47.080Z,3.35
2022-11-12T07:43:37.315Z,4.03
2022-11-12T07:46:27.532Z,3.60
2022-11-12T07:49:14.551Z,3.80
2022-11-12T07:52:01.679Z,3.85
2022-11-12T07:54:49.207Z,4.95
2022-11-12T07:57:36.008Z,5.15
2022-11-12T08:00:24.771Z,6.20
2022-11-12T08:03:12.211Z,4.65
2022-11-12T08:06:01.687Z,6.07
2022-11-12T08:08:48.676Z,5.63
2022-11-12T08:11:36.282Z,5.90
2022-11-12T08:14:24.695Z,3.88
2022-11-12T08:17:13.375Z,4.38
2022-11-12T08:20:00.277Z,5.05
2022-11-12T08:22:49.420Z,4.30
2022-11-12T08:25:38.104Z,4.93
2022-11-12T08:28:25.490Z,4.70
2022-11-12T08:31:15.796Z,4.35
2022-11-12T08:34:12.238Z,3.60
2022-11-12T08:37:00.610Z,4.75
2022-11-12T08:39:47.657Z,6.25
2022-11-12T08:42:34.746Z,5.00
2022-11-12T08:45:21.953Z,6.25
2022-11-12T08:48:13.763Z,11.80
2022-11-12T08:51:03.097Z,6.25
2022-11-12T08:53:49.920Z,4.35
2022-11-12T08:56:36.943Z,4.45
2022-11-12T08:59:24.076Z,7.47
2022-11-12T09:02:14.550Z,4.97
2022-11-12T09:05:01.484Z,5.30
2022-11-12T09:07:50.976Z,3.72
2022-11-12T09:10:39.413Z,4.18
2022-11-12T09:13:26.233Z,3.97
2022-11-12T09:16:13.304Z,3.03
2022-11-12T09:19:00.619Z,6.80
2022-11-12T09:21:48.041Z,8.23
2022-11-12T09:24:36.401Z,5.22
2022-11-12T09:27:23.766Z,4.20
2022-11-12T09:30:13.321Z,4.05
2022-11-12T09:33:00.882Z,4.88
2022-11-12T09:35:48.230Z,9.95
2022-11-12T09:38:35.404Z,9.43
2022-11-12T09:41:30.954Z,7.40
2022-11-12T09:44:22.051Z,5.30
2022-11-12T09:47:18.443Z,7.80
2022-11-12T09:50:21.308Z,6.97
2022-11-12T09:53:15.098Z,5.82
2022-11-12T09:56:06.701Z,7.82
2022-11-12T09:58:55.477Z,6.13
2022-11-12T10:02:04.287Z,7.38
2022-11-12T10:05:07.397Z,7.70
2022-11-12T10:08:12.655Z,11.45
2022-11-12T10:11:16.920Z,7.53
2022-11-12T10:14:19.209Z,7.15
2022-11-12T10:17:13.269Z,5.38
2022-11-12T10:20:14.366Z,6.82
2022-11-12T10:23:17.072Z,5.97
2022-11-12T10:26:14.454Z,11.60
2022-11-12T10:29:15.027Z,10.35
2022-11-12T10:32:03.937Z,7.72
2022-11-12T10:35:14.017Z,6.32
2022-11-12T10:38:05.270Z,6.07
2022-11-12T10:40:52.365Z,7.15
2022-11-12T10:43:40.949Z,4.70
2022-11-12T10:46:33.455Z,6.68
2022-11-12T10:49:26.240Z,5.57
2022-11-12T10:52:25.888Z,4.78
2022-11-12T10:55:19.958Z,8.65
2022-11-12T10:58:21.717Z,5.10
2022-11-12T11:01:19.461Z,6.30
2022-11-12T11:04:20.441Z,4.38
2022-11-12T11:07:21.225Z,4.43
2022-11-12T11:10:27.047Z,5.18
2022-11-12T11:13:22.011Z,9.43
2022-11-12T11:16:15.039Z,7.22
2022-11-12T11:19:06.188Z,5.20
2022-11-12T11:22:23.400Z,9.35
2022-11-12T11:25:22.302Z,7.68
2022-11-12T11:28:24.392Z,5.25
2022-11-12T11:31:25.075Z,6.95
2022-11-12T11:34:28.459Z,7.30
2022-11-12T11:37:27.878Z,6.50
2022-11-12T11:40:27.823Z,10.80
2022-11-12T11:43:48.687Z,7.00
2022-11-12T11:46:58.870Z,6.47
2022-11-12T11:50:15.376Z,3.90
2022-11-12T11:53:22.333Z,8.25
2022-11-12T11:56:20.786Z,4.88
2022-11-12T11:59:26.503Z,8.90
2022-11-12T12:02:36.051Z,6.70
2022-11-12T12:05:38.237Z,7.20
2022-11-12T12:08:41.950Z,7.40
2022-11-12T12:11:44.344Z,7.50
2022-11-12T12:14:47.704Z,10.32
2022-11-12T12:17:51.011Z,8.82
2022-11-12T12:20:46.243Z,6.90
2022-11-12T12:23:41.456Z,9.52
2022-11-12T12:26:34.307Z,8.98
2022-11-12T12:29:32.353Z,8.20
2022-11-12T12:32:24.724Z,7.25
2022-11-12T12:35:24.910Z,7.85
2022-11-12T12:38:21.670Z,12.43
2022-11-12T12:41:19.006Z,6.20
2022-11-12T12:44:09.788Z,7.32
2022-11-12T12:47:01.724Z,7.70
2022-11-12T12:49:51.823Z,7.80
2022-11-12T12:53:05.216Z,6.90
2022-11-12T12:55:53.579Z,8.35
2022-11-12T12:58:47.258Z,10.18
2022-11-12T13:01:36.954Z,9.55
2022-11-12T13:04:53.570Z,5.45
2022-11-12T13:07:44.481Z,6.20
2022-11-12T13:10:57.802Z,6.13
2022-11-12T13:13:47.029Z,8.57
2022-11-12T13:16:59.725Z,6.28
2022-11-12T13:20:08.485Z,7.00
2022-11-12T13:22:55.652Z,8.13
2022-11-12T13:25:42.617Z,5.13
2022-11-12T13:28:29.999Z,5.80
2022-11-12T13:31:30.218Z,7.50
2022-11-12T13:34:23.838Z,8.57
2022-11-12T13:37:21.497Z,4.63
2022-11-12T13:40:14.251Z,4.72
2022-11-12T13:43:12.041Z,6.00
2022-11-12T13:46:17.124Z,5.20
2022-11-12T13:49:11.178Z,4.82
2022-11-12T13:51:58.779Z,3.58
2022-11-12T13:54:46.184Z,4.03
2022-11-12T13:57:34.130Z,4.97
2022-11-12T14:00:29.963Z,6.47
2022-11-12T14:03:20.187Z,3.38
2022-11-12T14:06:17.767Z,7.13
2022-11-12T14:09:32.372Z,6.15
2022-11-12T14:12:43.444Z,3.78
2022-11-12T14:15:50.930Z,6.30
2022-11-12T14:19:02.431Z,3.63
2022-11-12T14:22:09.065Z,3.67
2022-11-12T14:25:01.462Z,5.10
2022-11-12T14:27:50.357Z,6.72
2022-11-12T14:30:45.764Z,7.03
2022-11-12T14:33:33.771Z,7.30
2022-11-12T14:36:21.993Z,9.45
2022-11-12T14:39:13.208Z,9.43
2022-11-12T14:42:01.598Z,15.45
2022-11-12T14:44:48.797Z,18.63
2022-11-12T14:47:36.080Z,14.65
2022-11-12T14:50:31.111Z,16.13
2022-11-12T14:53:27.905Z,19.63
2022-11-12T14:56:25.008Z,52.35
2022-11-12T14:59:13.770Z,16.52
2022-11-12T15:05:20.565Z,10.13
2022-11-12T15:08:12.922Z,15.02
2022-11-12T15:11:29.785Z,21.00
2022-11-12T15:14:25.283Z,18.42
2022-11-12T15:17:32.090Z,16.33
2022-11-12T15:20:20.722Z,15.38
2022-11-12T15:23:17.824Z,11.65
2022-11-12T15:26:05.524Z,16.98
2022-11-12T15:29:15.185Z,15.27
2022-11-12T15:32:08.614Z,14.93
2022-11-12T15:34:58.625Z,10.40
2022-11-12T15:37:46.015Z,8.52
2022-11-12T15:40:34.206Z,8.80
2022-11-12T15:43:25.909Z,6.28
2022-11-12T15:46:16.518Z,9.02
2022-11-12T15:49:03.688Z,11.70
2022-11-12T15:51:50.745Z,12.93
2022-11-12T15:54:41.021Z,19.83
2022-11-12T15:57:32.673Z,67.03
2022-11-12T16:00:22.262Z,62.13
2022-11-12T16:03:16.643Z,495.60
2022-11-12T16:06:08.948Z,165.02
2022-11-12T16:08:56.128Z,154.63
2022-11-12T16:11:43.486Z,156.55
2022-11-12T16:14:30.139Z,103.43
2022-11-12T16:17:19.814Z,93.07
2022-11-12T16:20:15.363Z,82.47
2022-11-12T16:23:02.674Z,47.13
2022-11-12T16:25:49.895Z,43.45
2022-11-12T16:28:37.443Z,34.78
2022-11-12T16:31:25.022Z,28.33
2022-11-12T16:34:12.104Z,23.85
2022-11-12T16:37:00.745Z,23.33
2022-11-12T16:39:48.087Z,15.65
2022-11-12T16:42:35.181Z,17.55
2022-11-12T16:45:25.112Z,15.43
2022-11-12T16:48:17.888Z,14.88
2022-11-12T16:51:05.041Z,13.73
2022-11-12T16:53:53.884Z,15.00
2022-11-12T16:56:40.879Z,12.70
2022-11-12T16:59:27.767Z,11.38
2022-11-12T17:02:16.929Z,12.23
2022-11-12T17:05:05.572Z,10.75
2022-11-12T17:07:57.672Z,12.70
2022-11-12T17:10:46.114Z,14.38
2022-11-12T17:13:33.314Z,14.48
2022-11-12T17:16:20.295Z,11.65
2022-11-12T17:19:08.106Z,13.65
2022-11-12T17:21:54.892Z,9.43
2022-11-12T17:24:41.941Z,13.52
2022-11-12T17:27:30.247Z,11.38
2022-11-12T17:30:17.568Z,10.88
2022-11-12T17:33:04.381Z,9.70
2022-11-12T17:35:51.530Z,11.63
2022-11-12T17:38:38.830Z,8.65
2022-11-12T17:41:28.307Z,10.95
2022-11-12T17:44:20.514Z,10.25
2022-11-12T17:47:07.766Z,9.15
2022-11-12T17:49:54.969Z,11.20
2022-11-12T17:52:42.442Z,10.63
2022-11-12T17:55:30.243Z,7.30
2022-11-12T17:58:16.948Z,8.82
2022-11-12T18:01:13.202Z,11.27
2022-11-12T18:04:00.345Z,9.38
2022-11-12T18:06:47.458Z,9.30
2022-11-12T18:09:34.566Z,10.57
2022-11-12T18:12:22.138Z,9.45
2022-11-12T18:15:10.108Z,8.48
2022-11-12T18:17:58.736Z,9.23
2022-11-12T18:20:46.380Z,8.40
2022-11-12T18:23:33.560Z,9.85
2022-11-12T18:26:21.531Z,9.75
2022-11-12T18:29:08.972Z,12.20
2022-11-12T18:31:55.958Z,7.47
2022-11-12T18:34:46.222Z,10.23
2022-11-12T18:37:33.452Z,9.27
2022-11-12T18:40:22.226Z,7.80
2022-11-12T18:43:09.063Z,7.13
2022-11-12T18:45:56.476Z,10.60
2022-11-12T18:48:43.795Z,7.32
2022-11-12T18:51:31.838Z,87.05
2022-11-12T18:54:18.777Z,38.97
2022-11-12T18:57:06.360Z,40.33
2022-11-12T18:59:55.111Z,34.75
2022-11-12T19:02:41.795Z,38.40
2022-11-12T19:05:28.980Z,32.30
2022-11-12T19:08:36.132Z,39.00
2022-11-12T19:11:24.083Z,33.63
2022-11-12T19:14:11.358Z,32.45
2022-11-12T19:16:58.126Z,25.08
2022-11-12T19:19:45.429Z,29.90
2022-11-12T19:22:32.656Z,44.05
2022-11-12T19:25:21.912Z,45.30
2022-11-12T19:28:08.961Z,45.95
2022-11-12T19:30:56.123Z,52.50
2022-11-12T19:33:43.215Z,112.15
2022-11-12T19:36:30.206Z,132.68
2022-11-12T19:39:17.181Z,338.60
2022-11-12T19:42:07.213Z,282.60
2022-11-12T19:44:54.255Z,248.68
2022-11-12T19:47:41.316Z,299.08
2022-11-12T19:50:30.508Z,235.35
2022-11-12T19:53:17.663Z,188.13
2022-11-12T19:56:06.611Z,157.20
2022-11-12T19:58:55.150Z,127.80
2022-11-12T20:01:42.000Z,115.18
2022-11-12T20:04:29.079Z,106.50
2022-11-12T20:07:16.148Z,106.15
2022-11-12T20:10:03.446Z,103.80
2022-11-12T20:12:50.294Z,104.50
2022-11-12T20:15:40.989Z,113.53
2022-11-12T20:18:28.007Z,100.60
2022-11-12T20:21:15.170Z,105.13
2022-11-12T20:24:02.654Z,103.40
2022-11-12T20:26:49.569Z,102.97
2022-11-12T20:29:36.646Z,98.30
2022-11-12T20:32:25.758Z,92.50
2022-11-12T20:35:19.326Z,94.72
2022-11-12T20:38:09.629Z,92.55
2022-11-12T20:41:04.704Z,95.40
2022-11-12T20:43:54.611Z,86.65
2022-11-12T20:46:41.744Z,88.38
2022-11-12T20:49:30.452Z,83.30
2022-11-12T20:52:17.614Z,64.93
2022-11-12T20:55:06.025Z,67.15
2022-11-12T20:57:53.069Z,66.22
2022-11-12T21:00:40.818Z,62.20
2022-11-12T21:03:27.739Z,62.60
2022-11-12T21:06:19.321Z,64.35
2022-11-12T21:09:07.028Z,55.63
2022-11-12T21:11:55.580Z,55.17
2022-11-12T21:14:50.080Z,55.75
2022-11-12T21:17:37.806Z,56.97
2022-11-12T21:20:29.998Z,58.60
2022-11-12T21:23:19.741Z,56.38
2022-11-12T21:26:10.147Z,54.13
2022-11-12T21:28:57.964Z,49.25
2022-11-12T21:31:44.818Z,50.10
2022-11-12T21:34:32.430Z,50.20
2022-11-12T21:37:21.591Z,46.38
2022-11-12T21:40:14.221Z,47.33
2022-11-12T21:43:02.382Z,51.00
2022-11-12T21:45:49.971Z,45.97
2022-11-12T21:48:37.421Z,46.08
2022-11-12T21:51:27.400Z,41.00
2022-11-12T21:54:15.837Z,41.90
2022-11-12T21:57:05.179Z,46.88
2022-11-12T21:59:57.529Z,45.03
2022-11-12T22:02:51.314Z,43.50
2022-11-12T22:05:44.224Z,45.40
2022-11-12T22:08:31.467Z,40.30
2022-11-12T22:11:18.636Z,40.95
2022-11-12T22:14:07.518Z,47.05
2022-11-12T22:16:55.281Z,47.53
2022-11-12T22:19:42.572Z,36.85
2022-11-12T22:22:29.976Z,39.22
2022-11-12T22:25:17.034Z,34.40
2022-11-12T22:28:04.735Z,38.97
2022-11-12T22:30:54.654Z,36.90
2022-11-12T22:33:42.468Z,40.40
2022-11-12T22:36:33.244Z,33.42
2022-11-12T22:39:20.590Z,35.95
2022-11-12T22:42:09.528Z,33.35
2022-11-12T22:44:57.654Z,32.40
2022-11-12T22:47:45.910Z,33.83
2022-11-12T22:50:32.981Z,36.42
2022-11-12T22:53:20.307Z,36.20
2022-11-12T22:56:10.213Z,34.38
2022-11-12T22:58:58.960Z,32.83
2022-11-12T23:01:45.820Z,27.50
2022-11-12T23:04:34.408Z,25.00
2022-11-12T23:07:21.630Z,22.70
2022-11-12T23:10:10.829Z,23.70
2022-11-12T23:12:57.982Z,20.17
2022-11-12T23:15:45.364Z,17.35
2022-11-12T23:18:32.300Z,19.27
2022-11-12T23:21:24.997Z,22.00
2022-11-12T23:24:37.322Z,19.80
2022-11-12T23:27:27.705Z,23.40
2022-11-12T23:30:15.582Z,18.73
2022-11-12T23:33:03.145Z,19.48
2022-11-12T23:35:50.363Z,18.30
2022-11-12T23:38:38.791Z,19.27
2022-11-12T23:41:39.369Z,16.33
2022-11-12T23:44:28.342Z,18.95
2022-11-12T23:47:19.236Z,18.48
2022-11-12T23:50:08.049Z,19.42
2022-11-12T23:52:55.381Z,16.60
2022-11-12T23:55:45.191Z,18.00
2022-11-12T23:58:32.348Z,389.77
